Strona główna
METAR-TAF:

METAR-TAF

Lotnisko :

Wagadugu, Burkina Faso

Port lotniczy Wagadugu

Szerokość geograficzna: 12-21N, Długość geograficzna: 001-31W, wysokość: 316 m

Aktualna obserwacja pogody

Raport powstał 54 minut temu, godzina 17:00 UTC
Wiatr 6 kt od północno-północny wschód
Temperatura 32°C
Wilgotność 12%
Ciśnienie 1011 hPa
Widzialność: 2500 m
pył

METAR: DFFD 171700Z 02006KT 2500 DU NSC 32/M01 Q1011 NOSIG

czas: 17:54 (17:54 UTC)

Prognoza

Raport powstał 54 minut temu, godzina 17:00 UTC
Prognoza ważna od 17 godzina 18 UTC do 18 godzina 24 UTC
Wiatr 8 kt od wschód
Widzialność: 2500 m
pył
Stopniowe zmiany
od 17 godzina 20 UTC do 17 godzina 22 UTC
Widzialność: 4000 m
pył
Stopniowe zmiany
od 18 godzina 04 UTC do 18 godzina 06 UTC
Widzialność: 1400 m
pył

TAF: DFFD 171700Z 1718/1824 09008KT 2500 DU NSC BECMG 1720/1722 4000 DU BECMG 1804/1806 1400 DU

Obserwacja i prognoza pogody dla ponad 4000 lotnisk (raport METAR i TAF).

Dostępne stacje oznaczono żółtymi i czerwonymi punktami na mapie.

Najedź kursorem aby zobaczyć nazwę stacji.

Kliknij aby zobaczyć obserwacje i prognozy pogody.

Aby zmienić mapę: kliknij na zielony przycisk z czarnym krzyżykiem, aby powiększyć; na zielony przycisk z myślnikiem, aby pomniejszyć; na zielone strzałki, aby przejść do map sąsiednich.


METAR-TAF: